sensor_id;sensor_type;location;lat;lon;timestamp;P1;durP1;ratioP1;P2;durP2;ratioP2
43620;SDS011;29213;50.770;7.298;2024-03-02T00:00:15;3.58;;;1.83;;
43620;SDS011;29213;50.770;7.298;2024-03-02T00:02:45;3.92;;;1.98;;
43620;SDS011;29213;50.770;7.298;2024-03-02T00:05:11;3.83;;;2.10;;
43620;SDS011;29213;50.770;7.298;2024-03-02T00:07:41;3.90;;;2.03;;
43620;SDS011;29213;50.770;7.298;2024-03-02T00:10:08;3.72;;;2.00;;
43620;SDS011;29213;50.770;7.298;2024-03-02T00:15:25;3.50;;;1.90;;
43620;SDS011;29213;50.770;7.298;2024-03-02T00:18:05;3.25;;;1.80;;
43620;SDS011;29213;50.770;7.298;2024-03-02T00:20:31;3.92;;;2.10;;
43620;SDS011;29213;50.770;7.298;2024-03-02T00:22:59;4.03;;;2.00;;
43620;SDS011;29213;50.770;7.298;2024-03-02T00:25:42;4.60;;;2.40;;
43620;SDS011;29213;50.770;7.298;2024-03-02T00:28:29;3.80;;;2.00;;
43620;SDS011;29213;50.770;7.298;2024-03-02T00:31:05;3.75;;;2.22;;
43620;SDS011;29213;50.770;7.298;2024-03-02T00:35:58;4.18;;;2.25;;
43620;SDS011;29213;50.770;7.298;2024-03-02T00:38:25;3.67;;;1.95;;
43620;SDS011;29213;50.770;7.298;2024-03-02T00:40:51;3.92;;;1.80;;
43620;SDS011;29213;50.770;7.298;2024-03-02T00:43:37;3.60;;;1.90;;
43620;SDS011;29213;50.770;7.298;2024-03-02T00:46:07;2.97;;;1.73;;
43620;SDS011;29213;50.770;7.298;2024-03-02T00:48:33;4.55;;;1.70;;
43620;SDS011;29213;50.770;7.298;2024-03-02T00:51:01;3.72;;;2.10;;
43620;SDS011;29213;50.770;7.298;2024-03-02T00:53:30;4.20;;;2.08;;
43620;SDS011;29213;50.770;7.298;2024-03-02T00:55:58;3.28;;;1.90;;
43620;SDS011;29213;50.770;7.298;2024-03-02T00:58:24;3.67;;;2.00;;
43620;SDS011;29213;50.770;7.298;2024-03-02T01:00:50;4.38;;;2.35;;
43620;SDS011;29213;50.770;7.298;2024-03-02T01:03:15;3.25;;;1.90;;
43620;SDS011;29213;50.770;7.298;2024-03-02T01:05:44;3.70;;;1.90;;
43620;SDS011;29213;50.770;7.298;2024-03-02T01:08:10;3.42;;;2.08;;
43620;SDS011;29213;50.770;7.298;2024-03-02T01:10:35;4.63;;;2.50;;
43620;SDS011;29213;50.770;7.298;2024-03-02T01:13:00;4.57;;;2.22;;
43620;SDS011;29213;50.770;7.298;2024-03-02T01:15:26;4.10;;;2.30;;
43620;SDS011;29213;50.770;7.298;2024-03-02T01:17:51;4.50;;;2.50;;
43620;SDS011;29213;50.770;7.298;2024-03-02T01:20:17;4.15;;;2.05;;
43620;SDS011;29213;50.770;7.298;2024-03-02T01:22:42;4.32;;;2.50;;
43620;SDS011;29213;50.770;7.298;2024-03-02T01:25:08;3.78;;;2.40;;
43620;SDS011;29213;50.770;7.298;2024-03-02T01:27:34;3.63;;;2.17;;
43620;SDS011;29213;50.770;7.298;2024-03-02T01:29:59;4.03;;;2.10;;
43620;SDS011;29213;50.770;7.298;2024-03-02T01:32:25;4.00;;;2.10;;
43620;SDS011;29213;50.770;7.298;2024-03-02T01:34:50;4.85;;;2.20;;
43620;SDS011;29213;50.770;7.298;2024-03-02T01:37:16;5.95;;;2.10;;
43620;SDS011;29213;50.770;7.298;2024-03-02T01:39:41;3.63;;;2.03;;
43620;SDS011;29213;50.770;7.298;2024-03-02T01:42:07;3.97;;;1.98;;
43620;SDS011;29213;50.770;7.298;2024-03-02T01:44:32;3.40;;;1.90;;
43620;SDS011;29213;50.770;7.298;2024-03-02T01:46:58;3.58;;;2.05;;
43620;SDS011;29213;50.770;7.298;2024-03-02T01:49:23;3.72;;;2.00;;
43620;SDS011;29213;50.770;7.298;2024-03-02T01:51:48;3.88;;;2.20;;
43620;SDS011;29213;50.770;7.298;2024-03-02T01:54:14;3.97;;;2.00;;
43620;SDS011;29213;50.770;7.298;2024-03-02T01:56:39;3.58;;;1.70;;
43620;SDS011;29213;50.770;7.298;2024-03-02T01:59:05;3.35;;;2.03;;
43620;SDS011;29213;50.770;7.298;2024-03-02T02:01:31;3.72;;;2.10;;
43620;SDS011;29213;50.770;7.298;2024-03-02T02:03:56;3.30;;;1.83;;
43620;SDS011;29213;50.770;7.298;2024-03-02T02:06:22;3.13;;;1.77;;
43620;SDS011;29213;50.770;7.298;2024-03-02T02:08:47;3.55;;;1.90;;
43620;SDS011;29213;50.770;7.298;2024-03-02T02:11:16;3.47;;;1.90;;
43620;SDS011;29213;50.770;7.298;2024-03-02T02:13:42;3.42;;;1.98;;
43620;SDS011;29213;50.770;7.298;2024-03-02T02:16:07;3.58;;;1.90;;
43620;SDS011;29213;50.770;7.298;2024-03-02T02:18:33;3.97;;;1.92;;
43620;SDS011;29213;50.770;7.298;2024-03-02T02:21:00;3.67;;;1.98;;
43620;SDS011;29213;50.770;7.298;2024-03-02T02:23:25;3.60;;;1.90;;
43620;SDS011;29213;50.770;7.298;2024-03-02T02:25:51;3.97;;;2.20;;
43620;SDS011;29213;50.770;7.298;2024-03-02T02:28:16;4.15;;;2.13;;
43620;SDS011;29213;50.770;7.298;2024-03-02T02:30:42;4.25;;;2.05;;
43620;SDS011;29213;50.770;7.298;2024-03-02T02:33:08;5.57;;;2.15;;
43620;SDS011;29213;50.770;7.298;2024-03-02T02:35:34;3.67;;;1.70;;
43620;SDS011;29213;50.770;7.298;2024-03-02T02:37:59;4.20;;;1.90;;
43620;SDS011;29213;50.770;7.298;2024-03-02T02:40:26;3.17;;;1.63;;
43620;SDS011;29213;50.770;7.298;2024-03-02T02:42:51;4.10;;;1.67;;
43620;SDS011;29213;50.770;7.298;2024-03-02T02:45:17;3.00;;;1.60;;
43620;SDS011;29213;50.770;7.298;2024-03-02T02:47:43;3.28;;;1.80;;
43620;SDS011;29213;50.770;7.298;2024-03-02T02:50:10;3.30;;;1.90;;
43620;SDS011;29213;50.770;7.298;2024-03-02T02:52:37;4.03;;;2.13;;
43620;SDS011;29213;50.770;7.298;2024-03-02T02:55:06;3.60;;;1.80;;
43620;SDS011;29213;50.770;7.298;2024-03-02T02:57:32;3.50;;;1.98;;
43620;SDS011;29213;50.770;7.298;2024-03-02T03:00:05;3.83;;;1.80;;
43620;SDS011;29213;50.770;7.298;2024-03-02T03:02:35;3.83;;;2.05;;
43620;SDS011;29213;50.770;7.298;2024-03-02T03:05:02;4.07;;;1.90;;
43620;SDS011;29213;50.770;7.298;2024-03-02T03:07:27;3.60;;;1.90;;
43620;SDS011;29213;50.770;7.298;2024-03-02T03:09:52;4.47;;;1.90;;
43620;SDS011;29213;50.770;7.298;2024-03-02T03:12:18;4.88;;;1.92;;
43620;SDS011;29213;50.770;7.298;2024-03-02T03:14:43;3.78;;;1.90;;
43620;SDS011;29213;50.770;7.298;2024-03-02T03:17:09;3.55;;;2.00;;
43620;SDS011;29213;50.770;7.298;2024-03-02T03:19:34;4.38;;;2.38;;
43620;SDS011;29213;50.770;7.298;2024-03-02T03:22:00;4.20;;;2.08;;
43620;SDS011;29213;50.770;7.298;2024-03-02T03:24:27;3.80;;;2.10;;
43620;SDS011;29213;50.770;7.298;2024-03-02T03:26:52;4.05;;;2.08;;
43620;SDS011;29213;50.770;7.298;2024-03-02T03:29:17;3.58;;;1.92;;
43620;SDS011;29213;50.770;7.298;2024-03-02T03:31:43;3.78;;;1.95;;
43620;SDS011;29213;50.770;7.298;2024-03-02T03:34:08;5.35;;;2.58;;
43620;SDS011;29213;50.770;7.298;2024-03-02T03:36:33;3.63;;;2.00;;
43620;SDS011;29213;50.770;7.298;2024-03-02T03:38:59;4.45;;;2.35;;
43620;SDS011;29213;50.770;7.298;2024-03-02T03:41:27;4.65;;;2.70;;
43620;SDS011;29213;50.770;7.298;2024-03-02T03:43:52;4.95;;;2.78;;
43620;SDS011;29213;50.770;7.298;2024-03-02T03:46:17;4.95;;;3.00;;
43620;SDS011;29213;50.770;7.298;2024-03-02T03:48:43;6.75;;;3.72;;
43620;SDS011;29213;50.770;7.298;2024-03-02T03:51:08;6.18;;;3.70;;
43620;SDS011;29213;50.770;7.298;2024-03-02T03:53:33;4.53;;;2.75;;
43620;SDS011;29213;50.770;7.298;2024-03-02T03:55:59;6.07;;;3.50;;
43620;SDS011;29213;50.770;7.298;2024-03-02T03:58:24;5.28;;;2.70;;
43620;SDS011;29213;50.770;7.298;2024-03-02T04:00:50;5.40;;;3.17;;
43620;SDS011;29213;50.770;7.298;2024-03-02T04:03:15;4.95;;;2.90;;
43620;SDS011;29213;50.770;7.298;2024-03-02T04:05:41;5.80;;;3.15;;
43620;SDS011;29213;50.770;7.298;2024-03-02T04:08:06;5.50;;;3.13;;
43620;SDS011;29213;50.770;7.298;2024-03-02T04:10:31;5.07;;;3.05;;
43620;SDS011;29213;50.770;7.298;2024-03-02T04:12:57;5.00;;;2.90;;
43620;SDS011;29213;50.770;7.298;2024-03-02T04:15:22;4.78;;;2.72;;
43620;SDS011;29213;50.770;7.298;2024-03-02T04:17:48;4.18;;;2.33;;
43620;SDS011;29213;50.770;7.298;2024-03-02T04:20:14;4.63;;;2.63;;
43620;SDS011;29213;50.770;7.298;2024-03-02T04:22:39;4.22;;;2.65;;
43620;SDS011;29213;50.770;7.298;2024-03-02T04:25:04;5.07;;;2.75;;
43620;SDS011;29213;50.770;7.298;2024-03-02T04:27:30;5.13;;;2.90;;
43620;SDS011;29213;50.770;7.298;2024-03-02T04:29:59;5.05;;;2.80;;
43620;SDS011;29213;50.770;7.298;2024-03-02T04:32:25;4.80;;;3.00;;
43620;SDS011;29213;50.770;7.298;2024-03-02T04:34:52;5.30;;;3.08;;
43620;SDS011;29213;50.770;7.298;2024-03-02T04:37:18;5.75;;;2.78;;
43620;SDS011;29213;50.770;7.298;2024-03-02T04:39:44;5.20;;;3.13;;
43620;SDS011;29213;50.770;7.298;2024-03-02T04:42:09;5.18;;;2.80;;
43620;SDS011;29213;50.770;7.298;2024-03-02T04:44:35;4.20;;;2.35;;
43620;SDS011;29213;50.770;7.298;2024-03-02T04:47:00;4.68;;;2.65;;
43620;SDS011;29213;50.770;7.298;2024-03-02T04:49:26;4.43;;;2.17;;
43620;SDS011;29213;50.770;7.298;2024-03-02T04:51:51;4.20;;;2.10;;
43620;SDS011;29213;50.770;7.298;2024-03-02T04:54:17;5.25;;;2.30;;
43620;SDS011;29213;50.770;7.298;2024-03-02T04:56:42;3.35;;;2.03;;
43620;SDS011;29213;50.770;7.298;2024-03-02T04:59:14;4.95;;;2.20;;
43620;SDS011;29213;50.770;7.298;2024-03-02T05:01:43;5.05;;;2.50;;
43620;SDS011;29213;50.770;7.298;2024-03-02T05:04:09;3.72;;;2.10;;
43620;SDS011;29213;50.770;7.298;2024-03-02T05:06:38;4.15;;;2.42;;
43620;SDS011;29213;50.770;7.298;2024-03-02T05:09:05;4.60;;;2.30;;
43620;SDS011;29213;50.770;7.298;2024-03-02T05:11:31;4.30;;;2.45;;
43620;SDS011;29213;50.770;7.298;2024-03-02T05:14:03;5.93;;;2.60;;
43620;SDS011;29213;50.770;7.298;2024-03-02T05:16:29;5.15;;;2.60;;
43620;SDS011;29213;50.770;7.298;2024-03-02T05:18:54;5.60;;;2.80;;
43620;SDS011;29213;50.770;7.298;2024-03-02T05:21:20;5.07;;;2.15;;
43620;SDS011;29213;50.770;7.298;2024-03-02T05:23:45;4.88;;;2.45;;
43620;SDS011;29213;50.770;7.298;2024-03-02T05:26:10;4.63;;;2.70;;
43620;SDS011;29213;50.770;7.298;2024-03-02T05:28:39;4.57;;;2.80;;
43620;SDS011;29213;50.770;7.298;2024-03-02T05:31:04;4.88;;;2.78;;
43620;SDS011;29213;50.770;7.298;2024-03-02T05:33:30;5.38;;;3.00;;
43620;SDS011;29213;50.770;7.298;2024-03-02T05:35:58;5.15;;;2.83;;
43620;SDS011;29213;50.770;7.298;2024-03-02T05:38:23;6.28;;;3.05;;
43620;SDS011;29213;50.770;7.298;2024-03-02T05:40:48;5.40;;;3.22;;
43620;SDS011;29213;50.770;7.298;2024-03-02T05:43:14;5.22;;;3.00;;
43620;SDS011;29213;50.770;7.298;2024-03-02T05:45:39;5.47;;;3.03;;
43620;SDS011;29213;50.770;7.298;2024-03-02T05:48:06;4.85;;;2.95;;
43620;SDS011;29213;50.770;7.298;2024-03-02T05:50:32;5.85;;;3.20;;
43620;SDS011;29213;50.770;7.298;2024-03-02T05:52:58;5.63;;;3.05;;
43620;SDS011;29213;50.770;7.298;2024-03-02T05:55:24;5.28;;;3.03;;
43620;SDS011;29213;50.770;7.298;2024-03-02T05:57:49;4.82;;;2.88;;
43620;SDS011;29213;50.770;7.298;2024-03-02T06:00:35;5.57;;;3.20;;
43620;SDS011;29213;50.770;7.298;2024-03-02T06:03:00;5.55;;;3.08;;
43620;SDS011;29213;50.770;7.298;2024-03-02T06:05:26;5.57;;;2.90;;
43620;SDS011;29213;50.770;7.298;2024-03-02T06:07:51;5.47;;;3.05;;
43620;SDS011;29213;50.770;7.298;2024-03-02T06:10:16;5.57;;;3.20;;
43620;SDS011;29213;50.770;7.298;2024-03-02T06:12:42;4.88;;;2.80;;
43620;SDS011;29213;50.770;7.298;2024-03-02T06:15:08;6.32;;;3.45;;
43620;SDS011;29213;50.770;7.298;2024-03-02T06:17:37;5.65;;;3.05;;
43620;SDS011;29213;50.770;7.298;2024-03-02T06:20:03;6.05;;;3.40;;
43620;SDS011;29213;50.770;7.298;2024-03-02T06:22:28;5.93;;;3.90;;
43620;SDS011;29213;50.770;7.298;2024-03-02T06:24:54;6.95;;;3.95;;
43620;SDS011;29213;50.770;7.298;2024-03-02T06:27:20;6.57;;;3.83;;
43620;SDS011;29213;50.770;7.298;2024-03-02T06:29:45;6.95;;;3.65;;
43620;SDS011;29213;50.770;7.298;2024-03-02T06:32:10;5.45;;;3.45;;
43620;SDS011;29213;50.770;7.298;2024-03-02T06:34:36;6.38;;;3.42;;
43620;SDS011;29213;50.770;7.298;2024-03-02T06:37:01;6.45;;;3.53;;
43620;SDS011;29213;50.770;7.298;2024-03-02T06:39:27;5.07;;;2.92;;
43620;SDS011;29213;50.770;7.298;2024-03-02T06:41:53;6.38;;;3.60;;
43620;SDS011;29213;50.770;7.298;2024-03-02T06:44:18;6.13;;;3.53;;
43620;SDS011;29213;50.770;7.298;2024-03-02T06:46:43;5.18;;;3.20;;
43620;SDS011;29213;50.770;7.298;2024-03-02T06:49:09;5.60;;;3.00;;
43620;SDS011;29213;50.770;7.298;2024-03-02T06:51:35;5.90;;;3.20;;
43620;SDS011;29213;50.770;7.298;2024-03-02T06:54:01;6.38;;;3.58;;
43620;SDS011;29213;50.770;7.298;2024-03-02T06:56:27;6.50;;;3.50;;
43620;SDS011;29213;50.770;7.298;2024-03-02T06:58:52;6.13;;;3.42;;
43620;SDS011;29213;50.770;7.298;2024-03-02T07:01:18;6.50;;;3.67;;
43620;SDS011;29213;50.770;7.298;2024-03-02T07:03:45;4.80;;;3.15;;
43620;SDS011;29213;50.770;7.298;2024-03-02T07:06:10;5.00;;;3.28;;
43620;SDS011;29213;50.770;7.298;2024-03-02T07:08:36;5.13;;;3.20;;
43620;SDS011;29213;50.770;7.298;2024-03-02T07:11:01;6.82;;;3.33;;
43620;SDS011;29213;50.770;7.298;2024-03-02T07:13:27;5.15;;;2.95;;
43620;SDS011;29213;50.770;7.298;2024-03-02T07:15:52;5.65;;;2.83;;
43620;SDS011;29213;50.770;7.298;2024-03-02T07:18:35;5.45;;;3.17;;
43620;SDS011;29213;50.770;7.298;2024-03-02T07:21:09;7.13;;;3.55;;
43620;SDS011;29213;50.770;7.298;2024-03-02T07:23:35;5.18;;;2.90;;
43620;SDS011;29213;50.770;7.298;2024-03-02T07:26:00;5.70;;;2.92;;
43620;SDS011;29213;50.770;7.298;2024-03-02T07:28:27;4.47;;;2.88;;
43620;SDS011;29213;50.770;7.298;2024-03-02T07:33:24;6.13;;;2.92;;
43620;SDS011;29213;50.770;7.298;2024-03-02T07:35:50;5.82;;;2.80;;
43620;SDS011;29213;50.770;7.298;2024-03-02T07:38:16;5.43;;;2.72;;
43620;SDS011;29213;50.770;7.298;2024-03-02T07:40:42;5.55;;;2.92;;
43620;SDS011;29213;50.770;7.298;2024-03-02T07:43:07;4.90;;;3.00;;
43620;SDS011;29213;50.770;7.298;2024-03-02T07:45:33;5.65;;;2.75;;
43620;SDS011;29213;50.770;7.298;2024-03-02T07:48:01;4.95;;;2.70;;
43620;SDS011;29213;50.770;7.298;2024-03-02T07:50:28;4.60;;;2.58;;
43620;SDS011;29213;50.770;7.298;2024-03-02T07:52:54;6.13;;;3.17;;
43620;SDS011;29213;50.770;7.298;2024-03-02T07:55:19;4.72;;;2.58;;
43620;SDS011;29213;50.770;7.298;2024-03-02T07:57:44;6.20;;;2.85;;
43620;SDS011;29213;50.770;7.298;2024-03-02T08:00:10;4.85;;;2.45;;
43620;SDS011;29213;50.770;7.298;2024-03-02T08:02:36;6.78;;;2.60;;
43620;SDS011;29213;50.770;7.298;2024-03-02T08:05:01;5.38;;;2.50;;
43620;SDS011;29213;50.770;7.298;2024-03-02T08:07:26;4.80;;;2.88;;
43620;SDS011;29213;50.770;7.298;2024-03-02T08:09:52;7.15;;;2.92;;
43620;SDS011;29213;50.770;7.298;2024-03-02T08:12:17;4.72;;;2.35;;
43620;SDS011;29213;50.770;7.298;2024-03-02T08:14:44;5.60;;;2.60;;
43620;SDS011;29213;50.770;7.298;2024-03-02T08:17:10;4.20;;;2.30;;
43620;SDS011;29213;50.770;7.298;2024-03-02T08:19:36;4.47;;;2.40;;
43620;SDS011;29213;50.770;7.298;2024-03-02T08:22:02;4.47;;;2.10;;
43620;SDS011;29213;50.770;7.298;2024-03-02T08:24:28;5.03;;;2.50;;
43620;SDS011;29213;50.770;7.298;2024-03-02T08:26:53;4.00;;;2.10;;
43620;SDS011;29213;50.770;7.298;2024-03-02T08:29:19;5.90;;;2.00;;
43620;SDS011;29213;50.770;7.298;2024-03-02T08:31:44;4.65;;;2.40;;
43620;SDS011;29213;50.770;7.298;2024-03-02T08:34:10;3.80;;;1.90;;
43620;SDS011;29213;50.770;7.298;2024-03-02T08:36:35;4.28;;;2.10;;
43620;SDS011;29213;50.770;7.298;2024-03-02T08:39:01;4.20;;;2.10;;
43620;SDS011;29213;50.770;7.298;2024-03-02T08:41:27;4.00;;;2.10;;
43620;SDS011;29213;50.770;7.298;2024-03-02T08:43:52;4.53;;;2.03;;
43620;SDS011;29213;50.770;7.298;2024-03-02T08:46:18;4.15;;;2.03;;
43620;SDS011;29213;50.770;7.298;2024-03-02T08:48:43;4.72;;;2.30;;
43620;SDS011;29213;50.770;7.298;2024-03-02T08:51:09;4.05;;;1.90;;
43620;SDS011;29213;50.770;7.298;2024-03-02T08:53:35;5.07;;;1.90;;
43620;SDS011;29213;50.770;7.298;2024-03-02T08:56:01;5.25;;;2.05;;
43620;SDS011;29213;50.770;7.298;2024-03-02T08:58:45;3.65;;;2.00;;
43620;SDS011;29213;50.770;7.298;2024-03-02T09:01:11;4.97;;;2.00;;
43620;SDS011;29213;50.770;7.298;2024-03-02T09:03:39;3.70;;;1.90;;
43620;SDS011;29213;50.770;7.298;2024-03-02T09:06:07;4.43;;;2.30;;
43620;SDS011;29213;50.770;7.298;2024-03-02T09:08:39;4.32;;;2.15;;
43620;SDS011;29213;50.770;7.298;2024-03-02T09:11:12;3.92;;;2.10;;
43620;SDS011;29213;50.770;7.298;2024-03-02T09:13:38;4.07;;;1.92;;
43620;SDS011;29213;50.770;7.298;2024-03-02T09:16:07;3.83;;;1.70;;
43620;SDS011;29213;50.770;7.298;2024-03-02T09:18:35;3.40;;;1.73;;
43620;SDS011;29213;50.770;7.298;2024-03-02T09:21:01;4.00;;;1.80;;
43620;SDS011;29213;50.770;7.298;2024-03-02T09:23:29;3.35;;;1.75;;
43620;SDS011;29213;50.770;7.298;2024-03-02T09:25:54;3.55;;;1.90;;
43620;SDS011;29213;50.770;7.298;2024-03-02T09:28:20;3.60;;;1.75;;
43620;SDS011;29213;50.770;7.298;2024-03-02T09:30:45;2.97;;;1.60;;
43620;SDS011;29213;50.770;7.298;2024-03-02T09:33:15;5.28;;;1.77;;
43620;SDS011;29213;50.770;7.298;2024-03-02T09:35:41;4.72;;;2.08;;
43620;SDS011;29213;50.770;7.298;2024-03-02T09:38:06;4.88;;;1.90;;
43620;SDS011;29213;50.770;7.298;2024-03-02T09:40:32;4.10;;;1.70;;
43620;SDS011;29213;50.770;7.298;2024-03-02T09:42:58;4.25;;;1.90;;
43620;SDS011;29213;50.770;7.298;2024-03-02T09:45:24;3.22;;;1.88;;
43620;SDS011;29213;50.770;7.298;2024-03-02T09:48:04;3.75;;;2.08;;
43620;SDS011;29213;50.770;7.298;2024-03-02T09:50:30;3.88;;;1.88;;
43620;SDS011;29213;50.770;7.298;2024-03-02T09:52:56;4.50;;;2.35;;
43620;SDS011;29213;50.770;7.298;2024-03-02T09:55:21;4.05;;;2.35;;
43620;SDS011;29213;50.770;7.298;2024-03-02T09:58:00;4.00;;;2.30;;
43620;SDS011;29213;50.770;7.298;2024-03-02T10:00:25;4.30;;;2.22;;
43620;SDS011;29213;50.770;7.298;2024-03-02T10:02:51;3.65;;;2.00;;
43620;SDS011;29213;50.770;7.298;2024-03-02T10:05:26;3.70;;;1.80;;
43620;SDS011;29213;50.770;7.298;2024-03-02T10:07:59;3.67;;;2.00;;
43620;SDS011;29213;50.770;7.298;2024-03-02T10:10:38;4.72;;;2.10;;
43620;SDS011;29213;50.770;7.298;2024-03-02T10:13:09;3.05;;;1.60;;
43620;SDS011;29213;50.770;7.298;2024-03-02T10:15:36;4.22;;;1.42;;
43620;SDS011;29213;50.770;7.298;2024-03-02T10:18:03;3.42;;;1.60;;
43620;SDS011;29213;50.770;7.298;2024-03-02T10:20:29;3.65;;;1.48;;
43620;SDS011;29213;50.770;7.298;2024-03-02T10:23:14;3.25;;;1.65;;
43620;SDS011;29213;50.770;7.298;2024-03-02T10:25:43;4.53;;;1.40;;
43620;SDS011;29213;50.770;7.298;2024-03-02T10:28:12;4.28;;;1.52;;
43620;SDS011;29213;50.770;7.298;2024-03-02T10:30:38;5.43;;;1.30;;
43620;SDS011;29213;50.770;7.298;2024-03-02T10:33:04;4.72;;;1.50;;
43620;SDS011;29213;50.770;7.298;2024-03-02T10:35:31;2.65;;;1.30;;
43620;SDS011;29213;50.770;7.298;2024-03-02T10:38:00;5.05;;;1.60;;
43620;SDS011;29213;50.770;7.298;2024-03-02T10:40:38;3.25;;;1.58;;
43620;SDS011;29213;50.770;7.298;2024-03-02T10:43:03;2.83;;;1.42;;
43620;SDS011;29213;50.770;7.298;2024-03-02T10:45:30;3.03;;;1.33;;
43620;SDS011;29213;50.770;7.298;2024-03-02T10:48:03;3.25;;;1.35;;
43620;SDS011;29213;50.770;7.298;2024-03-02T10:50:33;3.13;;;1.30;;
43620;SDS011;29213;50.770;7.298;2024-03-02T10:53:01;2.97;;;1.35;;
43620;SDS011;29213;50.770;7.298;2024-03-02T10:55:35;3.17;;;1.40;;
43620;SDS011;29213;50.770;7.298;2024-03-02T10:58:24;2.58;;;1.40;;
43620;SDS011;29213;50.770;7.298;2024-03-02T11:01:03;3.10;;;1.52;;
43620;SDS011;29213;50.770;7.298;2024-03-02T11:03:33;2.85;;;1.50;;
43620;SDS011;29213;50.770;7.298;2024-03-02T11:06:04;4.57;;;1.60;;
43620;SDS011;29213;50.770;7.298;2024-03-02T11:08:38;3.05;;;1.48;;
43620;SDS011;29213;50.770;7.298;2024-03-02T11:11:12;3.38;;;1.60;;
43620;SDS011;29213;50.770;7.298;2024-03-02T11:13:42;2.50;;;1.25;;
43620;SDS011;29213;50.770;7.298;2024-03-02T11:16:32;3.42;;;1.60;;
43620;SDS011;29213;50.770;7.298;2024-03-02T11:19:07;3.60;;;1.40;;
43620;SDS011;29213;50.770;7.298;2024-03-02T11:21:40;2.65;;;1.38;;
43620;SDS011;29213;50.770;7.298;2024-03-02T11:27:03;3.83;;;1.60;;
43620;SDS011;29213;50.770;7.298;2024-03-02T11:32:21;3.38;;;1.50;;
43620;SDS011;29213;50.770;7.298;2024-03-02T11:34:50;3.40;;;1.38;;
43620;SDS011;29213;50.770;7.298;2024-03-02T11:37:16;3.28;;;1.52;;
43620;SDS011;29213;50.770;7.298;2024-03-02T11:39:50;3.15;;;1.50;;
43620;SDS011;29213;50.770;7.298;2024-03-02T11:42:19;2.63;;;1.30;;
43620;SDS011;29213;50.770;7.298;2024-03-02T11:44:45;3.85;;;1.60;;
43620;SDS011;29213;50.770;7.298;2024-03-02T11:47:12;3.78;;;1.30;;
43620;SDS011;29213;50.770;7.298;2024-03-02T11:52:16;3.97;;;1.33;;
43620;SDS011;29213;50.770;7.298;2024-03-02T11:54:46;3.10;;;1.35;;
43620;SDS011;29213;50.770;7.298;2024-03-02T11:57:14;3.40;;;1.38;;
43620;SDS011;29213;50.770;7.298;2024-03-02T11:59:41;3.20;;;1.30;;
43620;SDS011;29213;50.770;7.298;2024-03-02T12:02:17;3.25;;;1.35;;
43620;SDS011;29213;50.770;7.298;2024-03-02T12:04:57;3.58;;;1.48;;
43620;SDS011;29213;50.770;7.298;2024-03-02T12:07:22;2.47;;;1.20;;
43620;SDS011;29213;50.770;7.298;2024-03-02T12:09:49;2.85;;;1.20;;
43620;SDS011;29213;50.770;7.298;2024-03-02T12:12:24;2.63;;;1.40;;
43620;SDS011;29213;50.770;7.298;2024-03-02T12:14:52;2.78;;;1.30;;
43620;SDS011;29213;50.770;7.298;2024-03-02T12:17:20;2.63;;;1.50;;
43620;SDS011;29213;50.770;7.298;2024-03-02T12:19:47;3.63;;;1.48;;
43620;SDS011;29213;50.770;7.298;2024-03-02T12:22:13;3.10;;;1.40;;
43620;SDS011;29213;50.770;7.298;2024-03-02T12:24:38;2.95;;;1.30;;
43620;SDS011;29213;50.770;7.298;2024-03-02T12:27:08;2.85;;;1.45;;
43620;SDS011;29213;50.770;7.298;2024-03-02T12:29:34;2.88;;;1.35;;
43620;SDS011;29213;50.770;7.298;2024-03-02T12:31:59;2.70;;;1.20;;
43620;SDS011;29213;50.770;7.298;2024-03-02T12:34:28;3.05;;;1.40;;
43620;SDS011;29213;50.770;7.298;2024-03-02T12:36:57;2.80;;;1.30;;
43620;SDS011;29213;50.770;7.298;2024-03-02T12:39:24;2.95;;;1.20;;
43620;SDS011;29213;50.770;7.298;2024-03-02T12:41:50;3.60;;;1.75;;
43620;SDS011;29213;50.770;7.298;2024-03-02T12:44:19;3.90;;;1.53;;
43620;SDS011;29213;50.770;7.298;2024-03-02T12:46:44;3.00;;;1.40;;
43620;SDS011;29213;50.770;7.298;2024-03-02T12:49:11;3.00;;;1.40;;
43620;SDS011;29213;50.770;7.298;2024-03-02T12:51:41;3.97;;;1.38;;
43620;SDS011;29213;50.770;7.298;2024-03-02T12:54:21;3.90;;;1.40;;
43620;SDS011;29213;50.770;7.298;2024-03-02T12:56:52;4.00;;;1.80;;
43620;SDS011;29213;50.770;7.298;2024-03-02T12:59:23;4.85;;;1.50;;
43620;SDS011;29213;50.770;7.298;2024-03-02T13:01:54;3.53;;;1.60;;
43620;SDS011;29213;50.770;7.298;2024-03-02T13:04:24;3.88;;;1.60;;
43620;SDS011;29213;50.770;7.298;2024-03-02T13:06:54;3.50;;;1.42;;
43620;SDS011;29213;50.770;7.298;2024-03-02T13:09:25;3.70;;;1.50;;
43620;SDS011;29213;50.770;7.298;2024-03-02T13:11:57;3.00;;;1.30;;
43620;SDS011;29213;50.770;7.298;2024-03-02T13:14:24;2.58;;;1.30;;
43620;SDS011;29213;50.770;7.298;2024-03-02T13:16:51;3.28;;;1.35;;
43620;SDS011;29213;50.770;7.298;2024-03-02T13:19:17;2.75;;;1.20;;
43620;SDS011;29213;50.770;7.298;2024-03-02T13:21:44;2.25;;;1.10;;
43620;SDS011;29213;50.770;7.298;2024-03-02T13:24:09;3.38;;;1.10;;
43620;SDS011;29213;50.770;7.298;2024-03-02T13:26:35;2.15;;;1.00;;
43620;SDS011;29213;50.770;7.298;2024-03-02T13:29:00;3.88;;;1.27;;
43620;SDS011;29213;50.770;7.298;2024-03-02T13:31:26;3.35;;;1.38;;
43620;SDS011;29213;50.770;7.298;2024-03-02T13:33:51;2.63;;;1.27;;
43620;SDS011;29213;50.770;7.298;2024-03-02T13:36:17;2.90;;;1.30;;
43620;SDS011;29213;50.770;7.298;2024-03-02T13:38:43;3.15;;;1.20;;
43620;SDS011;29213;50.770;7.298;2024-03-02T13:41:09;3.85;;;1.17;;
43620;SDS011;29213;50.770;7.298;2024-03-02T13:43:35;3.05;;;1.30;;
43620;SDS011;29213;50.770;7.298;2024-03-02T13:46:02;3.55;;;1.50;;
43620;SDS011;29213;50.770;7.298;2024-03-02T13:48:28;3.95;;;1.45;;
43620;SDS011;29213;50.770;7.298;2024-03-02T13:50:53;2.40;;;1.20;;
43620;SDS011;29213;50.770;7.298;2024-03-02T13:53:19;2.50;;;1.10;;
43620;SDS011;29213;50.770;7.298;2024-03-02T13:55:45;2.85;;;1.10;;
43620;SDS011;29213;50.770;7.298;2024-03-02T13:58:10;3.00;;;1.10;;
43620;SDS011;29213;50.770;7.298;2024-03-02T14:00:36;4.10;;;1.75;;
43620;SDS011;29213;50.770;7.298;2024-03-02T14:03:04;3.20;;;1.50;;
43620;SDS011;29213;50.770;7.298;2024-03-02T14:05:31;3.08;;;1.40;;
43620;SDS011;29213;50.770;7.298;2024-03-02T14:07:57;3.65;;;1.20;;
43620;SDS011;29213;50.770;7.298;2024-03-02T14:10:23;2.88;;;1.10;;
43620;SDS011;29213;50.770;7.298;2024-03-02T14:12:49;2.72;;;1.23;;
43620;SDS011;29213;50.770;7.298;2024-03-02T14:15:15;3.00;;;1.10;;
43620;SDS011;29213;50.770;7.298;2024-03-02T14:17:42;3.03;;;1.10;;
43620;SDS011;29213;50.770;7.298;2024-03-02T14:20:08;2.72;;;1.13;;
43620;SDS011;29213;50.770;7.298;2024-03-02T14:22:36;2.10;;;1.00;;
43620;SDS011;29213;50.770;7.298;2024-03-02T14:25:03;2.60;;;1.10;;
43620;SDS011;29213;50.770;7.298;2024-03-02T14:27:29;3.20;;;1.30;;
43620;SDS011;29213;50.770;7.298;2024-03-02T14:29:54;2.70;;;1.20;;
43620;SDS011;29213;50.770;7.298;2024-03-02T14:32:20;4.60;;;1.30;;
43620;SDS011;29213;50.770;7.298;2024-03-02T14:34:46;4.82;;;1.63;;
43620;SDS011;29213;50.770;7.298;2024-03-02T14:37:12;3.00;;;1.50;;
43620;SDS011;29213;50.770;7.298;2024-03-02T14:39:39;4.85;;;1.20;;
43620;SDS011;29213;50.770;7.298;2024-03-02T14:42:04;2.42;;;1.20;;
43620;SDS011;29213;50.770;7.298;2024-03-02T14:44:30;2.42;;;1.40;;
43620;SDS011;29213;50.770;7.298;2024-03-02T14:46:56;2.40;;;1.17;;
43620;SDS011;29213;50.770;7.298;2024-03-02T14:49:23;2.13;;;0.90;;
43620;SDS011;29213;50.770;7.298;2024-03-02T14:51:49;2.45;;;1.15;;
43620;SDS011;29213;50.770;7.298;2024-03-02T14:54:15;2.35;;;1.02;;
43620;SDS011;29213;50.770;7.298;2024-03-02T14:56:41;3.15;;;1.20;;
43620;SDS011;29213;50.770;7.298;2024-03-02T14:59:06;2.33;;;1.10;;
43620;SDS011;29213;50.770;7.298;2024-03-02T15:01:37;3.65;;;1.60;;
43620;SDS011;29213;50.770;7.298;2024-03-02T15:04:05;4.40;;;1.77;;